sensor_id;sensor_type;location;lat;lon;timestamp;P1;durP1;ratioP1;P2;durP2;ratioP2
41881;SDS011;27562;47.524;12.404;2023-11-21T00:01:17;8.68;;;4.72;;
41881;SDS011;27562;47.524;12.404;2023-11-21T00:03:43;9.05;;;5.63;;
41881;SDS011;27562;47.524;12.404;2023-11-21T00:06:09;8.20;;;4.75;;
41881;SDS011;27562;47.524;12.404;2023-11-21T00:08:35;8.25;;;5.57;;
41881;SDS011;27562;47.524;12.404;2023-11-21T00:11:01;8.18;;;5.20;;
41881;SDS011;27562;47.524;12.404;2023-11-21T00:13:27;8.20;;;5.25;;
41881;SDS011;27562;47.524;12.404;2023-11-21T00:15:53;8.13;;;4.97;;
41881;SDS011;27562;47.524;12.404;2023-11-21T00:18:19;9.73;;;5.60;;
41881;SDS011;27562;47.524;12.404;2023-11-21T00:20:45;10.23;;;5.80;;
41881;SDS011;27562;47.524;12.404;2023-11-21T00:23:11;9.95;;;5.65;;
41881;SDS011;27562;47.524;12.404;2023-11-21T00:25:37;7.10;;;5.10;;
41881;SDS011;27562;47.524;12.404;2023-11-21T00:28:02;7.97;;;5.25;;
41881;SDS011;27562;47.524;12.404;2023-11-21T00:30:28;7.25;;;4.93;;
41881;SDS011;27562;47.524;12.404;2023-11-21T00:32:54;7.72;;;4.90;;
41881;SDS011;27562;47.524;12.404;2023-11-21T00:35:20;8.95;;;5.53;;
41881;SDS011;27562;47.524;12.404;2023-11-21T00:37:45;8.25;;;5.38;;
41881;SDS011;27562;47.524;12.404;2023-11-21T00:40:11;8.00;;;5.30;;
41881;SDS011;27562;47.524;12.404;2023-11-21T00:42:38;8.50;;;5.40;;
41881;SDS011;27562;47.524;12.404;2023-11-21T00:45:04;9.95;;;5.60;;
41881;SDS011;27562;47.524;12.404;2023-11-21T00:47:31;8.82;;;5.38;;
41881;SDS011;27562;47.524;12.404;2023-11-21T00:49:56;9.93;;;5.78;;
41881;SDS011;27562;47.524;12.404;2023-11-21T00:52:22;9.52;;;6.07;;
41881;SDS011;27562;47.524;12.404;2023-11-21T00:54:48;10.80;;;6.32;;
41881;SDS011;27562;47.524;12.404;2023-11-21T00:57:14;8.73;;;5.25;;
41881;SDS011;27562;47.524;12.404;2023-11-21T00:59:40;8.57;;;5.28;;
41881;SDS011;27562;47.524;12.404;2023-11-21T01:02:05;7.25;;;4.80;;
41881;SDS011;27562;47.524;12.404;2023-11-21T01:04:35;7.05;;;4.75;;
41881;SDS011;27562;47.524;12.404;2023-11-21T01:07:00;6.60;;;4.72;;
41881;SDS011;27562;47.524;12.404;2023-11-21T01:09:26;7.72;;;4.82;;
41881;SDS011;27562;47.524;12.404;2023-11-21T01:11:53;8.60;;;5.05;;
41881;SDS011;27562;47.524;12.404;2023-11-21T01:14:18;7.45;;;4.32;;
41881;SDS011;27562;47.524;12.404;2023-11-21T01:16:44;7.85;;;5.13;;
41881;SDS011;27562;47.524;12.404;2023-11-21T01:19:10;8.80;;;5.63;;
41881;SDS011;27562;47.524;12.404;2023-11-21T01:21:36;8.40;;;5.50;;
41881;SDS011;27562;47.524;12.404;2023-11-21T01:24:02;9.15;;;5.28;;
41881;SDS011;27562;47.524;12.404;2023-11-21T01:26:28;8.32;;;5.32;;
41881;SDS011;27562;47.524;12.404;2023-11-21T01:28:54;7.78;;;4.85;;
41881;SDS011;27562;47.524;12.404;2023-11-21T01:31:19;7.40;;;4.50;;
41881;SDS011;27562;47.524;12.404;2023-11-21T01:33:45;8.68;;;5.40;;
41881;SDS011;27562;47.524;12.404;2023-11-21T01:36:11;7.28;;;4.75;;
41881;SDS011;27562;47.524;12.404;2023-11-21T01:38:37;11.95;;;5.78;;
41881;SDS011;27562;47.524;12.404;2023-11-21T01:41:03;9.27;;;4.93;;
41881;SDS011;27562;47.524;12.404;2023-11-21T01:43:29;9.57;;;5.20;;
41881;SDS011;27562;47.524;12.404;2023-11-21T01:45:56;9.65;;;5.07;;
41881;SDS011;27562;47.524;12.404;2023-11-21T01:48:25;9.48;;;5.28;;
41881;SDS011;27562;47.524;12.404;2023-11-21T01:50:52;7.35;;;4.60;;
41881;SDS011;27562;47.524;12.404;2023-11-21T01:53:18;9.10;;;5.38;;
41881;SDS011;27562;47.524;12.404;2023-11-21T01:55:44;11.27;;;5.72;;
41881;SDS011;27562;47.524;12.404;2023-11-21T01:58:11;6.70;;;4.82;;
41881;SDS011;27562;47.524;12.404;2023-11-21T02:00:39;8.70;;;4.60;;
41881;SDS011;27562;47.524;12.404;2023-11-21T02:03:05;7.85;;;5.25;;
41881;SDS011;27562;47.524;12.404;2023-11-21T02:05:32;6.88;;;5.00;;
41881;SDS011;27562;47.524;12.404;2023-11-21T02:07:58;7.82;;;4.90;;
41881;SDS011;27562;47.524;12.404;2023-11-21T02:10:24;7.55;;;4.70;;
41881;SDS011;27562;47.524;12.404;2023-11-21T02:12:49;9.90;;;5.35;;
41881;SDS011;27562;47.524;12.404;2023-11-21T02:15:15;6.40;;;4.57;;
41881;SDS011;27562;47.524;12.404;2023-11-21T02:17:45;9.63;;;5.25;;
41881;SDS011;27562;47.524;12.404;2023-11-21T02:20:16;8.10;;;5.15;;
41881;SDS011;27562;47.524;12.404;2023-11-21T02:22:55;7.93;;;5.30;;
41881;SDS011;27562;47.524;12.404;2023-11-21T02:25:25;8.80;;;5.03;;
41881;SDS011;27562;47.524;12.404;2023-11-21T02:27:52;8.95;;;5.40;;
41881;SDS011;27562;47.524;12.404;2023-11-21T02:30:22;10.63;;;5.60;;
41881;SDS011;27562;47.524;12.404;2023-11-21T02:32:51;7.70;;;4.78;;
41881;SDS011;27562;47.524;12.404;2023-11-21T02:35:20;6.13;;;4.18;;
41881;SDS011;27562;47.524;12.404;2023-11-21T02:37:49;6.75;;;4.55;;
41881;SDS011;27562;47.524;12.404;2023-11-21T02:40:15;9.88;;;5.20;;
41881;SDS011;27562;47.524;12.404;2023-11-21T02:42:45;8.40;;;4.88;;
41881;SDS011;27562;47.524;12.404;2023-11-21T02:45:12;6.95;;;4.70;;
41881;SDS011;27562;47.524;12.404;2023-11-21T02:47:41;6.93;;;4.40;;
41881;SDS011;27562;47.524;12.404;2023-11-21T02:50:08;8.50;;;5.30;;
41881;SDS011;27562;47.524;12.404;2023-11-21T02:52:34;7.68;;;5.15;;
41881;SDS011;27562;47.524;12.404;2023-11-21T02:55:03;7.28;;;4.65;;
41881;SDS011;27562;47.524;12.404;2023-11-21T02:57:29;6.15;;;4.50;;
41881;SDS011;27562;47.524;12.404;2023-11-21T02:59:55;7.85;;;4.63;;
41881;SDS011;27562;47.524;12.404;2023-11-21T03:02:21;6.40;;;4.35;;
41881;SDS011;27562;47.524;12.404;2023-11-21T03:04:47;6.93;;;4.30;;
41881;SDS011;27562;47.524;12.404;2023-11-21T03:07:14;6.75;;;4.43;;
41881;SDS011;27562;47.524;12.404;2023-11-21T03:09:40;5.38;;;3.50;;
41881;SDS011;27562;47.524;12.404;2023-11-21T03:12:07;5.75;;;3.92;;
41881;SDS011;27562;47.524;12.404;2023-11-21T03:14:33;6.82;;;4.65;;
41881;SDS011;27562;47.524;12.404;2023-11-21T03:16:59;7.95;;;4.28;;
41881;SDS011;27562;47.524;12.404;2023-11-21T03:19:25;6.25;;;4.20;;
41881;SDS011;27562;47.524;12.404;2023-11-21T03:21:51;5.40;;;3.90;;
41881;SDS011;27562;47.524;12.404;2023-11-21T03:24:18;6.10;;;3.97;;
41881;SDS011;27562;47.524;12.404;2023-11-21T03:26:45;6.53;;;4.00;;
41881;SDS011;27562;47.524;12.404;2023-11-21T03:29:11;5.40;;;3.80;;
41881;SDS011;27562;47.524;12.404;2023-11-21T03:31:37;6.82;;;4.13;;
41881;SDS011;27562;47.524;12.404;2023-11-21T03:34:03;6.53;;;4.32;;
41881;SDS011;27562;47.524;12.404;2023-11-21T03:36:28;6.30;;;4.65;;
41881;SDS011;27562;47.524;12.404;2023-11-21T03:38:54;6.97;;;4.85;;
41881;SDS011;27562;47.524;12.404;2023-11-21T03:41:20;6.50;;;4.63;;
41881;SDS011;27562;47.524;12.404;2023-11-21T03:43:46;8.77;;;4.57;;
41881;SDS011;27562;47.524;12.404;2023-11-21T03:46:12;6.28;;;4.55;;
41881;SDS011;27562;47.524;12.404;2023-11-21T03:48:38;7.97;;;4.07;;
41881;SDS011;27562;47.524;12.404;2023-11-21T03:51:04;6.38;;;4.80;;
41881;SDS011;27562;47.524;12.404;2023-11-21T03:53:29;7.55;;;4.50;;
41881;SDS011;27562;47.524;12.404;2023-11-21T03:55:55;8.18;;;4.63;;
41881;SDS011;27562;47.524;12.404;2023-11-21T03:58:21;6.28;;;4.32;;
41881;SDS011;27562;47.524;12.404;2023-11-21T04:00:47;6.65;;;4.15;;
41881;SDS011;27562;47.524;12.404;2023-11-21T04:03:16;7.57;;;4.95;;
41881;SDS011;27562;47.524;12.404;2023-11-21T04:05:41;8.70;;;5.22;;
41881;SDS011;27562;47.524;12.404;2023-11-21T04:08:07;6.90;;;4.97;;
41881;SDS011;27562;47.524;12.404;2023-11-21T04:10:32;7.03;;;4.43;;
41881;SDS011;27562;47.524;12.404;2023-11-21T04:12:58;6.20;;;4.20;;
41881;SDS011;27562;47.524;12.404;2023-11-21T04:15:25;5.78;;;4.10;;
41881;SDS011;27562;47.524;12.404;2023-11-21T04:17:51;6.07;;;4.03;;
41881;SDS011;27562;47.524;12.404;2023-11-21T04:20:17;5.82;;;3.92;;
41881;SDS011;27562;47.524;12.404;2023-11-21T04:22:43;6.03;;;4.00;;
41881;SDS011;27562;47.524;12.404;2023-11-21T04:25:13;5.60;;;3.97;;
41881;SDS011;27562;47.524;12.404;2023-11-21T04:27:40;7.10;;;4.32;;
41881;SDS011;27562;47.524;12.404;2023-11-21T04:30:09;8.02;;;5.10;;
41881;SDS011;27562;47.524;12.404;2023-11-21T04:32:35;11.80;;;5.75;;
41881;SDS011;27562;47.524;12.404;2023-11-21T04:35:01;10.80;;;6.72;;
41881;SDS011;27562;47.524;12.404;2023-11-21T04:37:27;14.15;;;8.00;;
41881;SDS011;27562;47.524;12.404;2023-11-21T04:39:52;12.35;;;7.68;;
41881;SDS011;27562;47.524;12.404;2023-11-21T04:42:18;13.90;;;8.55;;
41881;SDS011;27562;47.524;12.404;2023-11-21T04:44:44;14.57;;;8.52;;
41881;SDS011;27562;47.524;12.404;2023-11-21T04:47:10;14.35;;;7.95;;
41881;SDS011;27562;47.524;12.404;2023-11-21T04:49:35;13.05;;;7.47;;
41881;SDS011;27562;47.524;12.404;2023-11-21T04:52:01;11.88;;;6.82;;
41881;SDS011;27562;47.524;12.404;2023-11-21T04:54:28;12.07;;;6.90;;
41881;SDS011;27562;47.524;12.404;2023-11-21T04:56:55;11.27;;;7.20;;
41881;SDS011;27562;47.524;12.404;2023-11-21T04:59:21;11.65;;;7.10;;
41881;SDS011;27562;47.524;12.404;2023-11-21T05:01:50;11.50;;;7.18;;
41881;SDS011;27562;47.524;12.404;2023-11-21T05:04:15;12.73;;;7.45;;
41881;SDS011;27562;47.524;12.404;2023-11-21T05:06:41;11.30;;;7.15;;
41881;SDS011;27562;47.524;12.404;2023-11-21T05:09:07;9.60;;;6.60;;
41881;SDS011;27562;47.524;12.404;2023-11-21T05:11:36;8.45;;;5.60;;
41881;SDS011;27562;47.524;12.404;2023-11-21T05:14:03;9.10;;;5.93;;
41881;SDS011;27562;47.524;12.404;2023-11-21T05:16:30;11.50;;;6.65;;
41881;SDS011;27562;47.524;12.404;2023-11-21T05:18:56;10.75;;;6.45;;
41881;SDS011;27562;47.524;12.404;2023-11-21T05:21:25;12.20;;;6.78;;
41881;SDS011;27562;47.524;12.404;2023-11-21T05:23:51;11.05;;;6.72;;
41881;SDS011;27562;47.524;12.404;2023-11-21T05:26:17;16.55;;;7.85;;
41881;SDS011;27562;47.524;12.404;2023-11-21T05:28:43;11.63;;;6.57;;
41881;SDS011;27562;47.524;12.404;2023-11-21T05:31:08;12.93;;;6.97;;
41881;SDS011;27562;47.524;12.404;2023-11-21T05:33:35;11.10;;;6.10;;
41881;SDS011;27562;47.524;12.404;2023-11-21T05:36:01;9.52;;;5.30;;
41881;SDS011;27562;47.524;12.404;2023-11-21T05:38:27;13.98;;;8.00;;
41881;SDS011;27562;47.524;12.404;2023-11-21T05:40:53;9.40;;;6.22;;
41881;SDS011;27562;47.524;12.404;2023-11-21T05:43:19;16.05;;;11.40;;
41881;SDS011;27562;47.524;12.404;2023-11-21T05:45:45;10.38;;;6.70;;
41881;SDS011;27562;47.524;12.404;2023-11-21T05:48:10;8.85;;;5.75;;
41881;SDS011;27562;47.524;12.404;2023-11-21T05:50:36;8.48;;;4.75;;
41881;SDS011;27562;47.524;12.404;2023-11-21T05:53:03;8.98;;;6.13;;
41881;SDS011;27562;47.524;12.404;2023-11-21T05:55:29;9.18;;;6.03;;
41881;SDS011;27562;47.524;12.404;2023-11-21T05:57:55;9.43;;;5.55;;
41881;SDS011;27562;47.524;12.404;2023-11-21T06:00:20;9.48;;;5.30;;
41881;SDS011;27562;47.524;12.404;2023-11-21T06:02:52;8.02;;;4.93;;
41881;SDS011;27562;47.524;12.404;2023-11-21T06:05:22;10.02;;;5.85;;
41881;SDS011;27562;47.524;12.404;2023-11-21T06:07:49;9.90;;;5.40;;
41881;SDS011;27562;47.524;12.404;2023-11-21T06:10:17;10.80;;;5.30;;
41881;SDS011;27562;47.524;12.404;2023-11-21T06:12:44;9.05;;;5.60;;
41881;SDS011;27562;47.524;12.404;2023-11-21T06:15:10;7.32;;;5.05;;
41881;SDS011;27562;47.524;12.404;2023-11-21T06:17:39;7.68;;;4.25;;
41881;SDS011;27562;47.524;12.404;2023-11-21T06:20:06;10.05;;;5.32;;
41881;SDS011;27562;47.524;12.404;2023-11-21T06:22:39;8.73;;;4.55;;
41881;SDS011;27562;47.524;12.404;2023-11-21T06:25:06;7.72;;;4.80;;
41881;SDS011;27562;47.524;12.404;2023-11-21T06:27:37;9.60;;;5.15;;
41881;SDS011;27562;47.524;12.404;2023-11-21T06:30:04;7.75;;;5.10;;
41881;SDS011;27562;47.524;12.404;2023-11-21T06:32:31;11.13;;;5.35;;
41881;SDS011;27562;47.524;12.404;2023-11-21T06:34:58;10.27;;;5.50;;
41881;SDS011;27562;47.524;12.404;2023-11-21T06:37:26;9.07;;;5.22;;
41881;SDS011;27562;47.524;12.404;2023-11-21T06:39:52;8.07;;;4.97;;
41881;SDS011;27562;47.524;12.404;2023-11-21T06:42:19;8.70;;;4.97;;
41881;SDS011;27562;47.524;12.404;2023-11-21T06:44:45;9.07;;;4.68;;
41881;SDS011;27562;47.524;12.404;2023-11-21T06:47:11;8.65;;;4.70;;
41881;SDS011;27562;47.524;12.404;2023-11-21T06:49:37;10.05;;;4.78;;
41881;SDS011;27562;47.524;12.404;2023-11-21T06:52:03;9.70;;;5.20;;
41881;SDS011;27562;47.524;12.404;2023-11-21T06:54:30;10.02;;;6.05;;
41881;SDS011;27562;47.524;12.404;2023-11-21T06:56:56;11.15;;;7.15;;
41881;SDS011;27562;47.524;12.404;2023-11-21T06:59:23;10.10;;;6.20;;
41881;SDS011;27562;47.524;12.404;2023-11-21T07:01:49;11.43;;;7.07;;
41881;SDS011;27562;47.524;12.404;2023-11-21T07:04:15;11.27;;;6.68;;
41881;SDS011;27562;47.524;12.404;2023-11-21T07:06:41;10.48;;;6.00;;
41881;SDS011;27562;47.524;12.404;2023-11-21T07:09:08;12.02;;;7.78;;
41881;SDS011;27562;47.524;12.404;2023-11-21T07:11:34;11.30;;;7.18;;
41881;SDS011;27562;47.524;12.404;2023-11-21T07:14:00;9.65;;;6.05;;
41881;SDS011;27562;47.524;12.404;2023-11-21T07:16:32;10.13;;;6.32;;
41881;SDS011;27562;47.524;12.404;2023-11-21T07:19:05;10.35;;;5.78;;
41881;SDS011;27562;47.524;12.404;2023-11-21T07:21:34;9.80;;;5.65;;
41881;SDS011;27562;47.524;12.404;2023-11-21T07:24:01;9.02;;;5.80;;
41881;SDS011;27562;47.524;12.404;2023-11-21T07:26:27;9.90;;;6.13;;
41881;SDS011;27562;47.524;12.404;2023-11-21T07:28:53;11.02;;;6.63;;
41881;SDS011;27562;47.524;12.404;2023-11-21T07:31:19;10.70;;;6.05;;
41881;SDS011;27562;47.524;12.404;2023-11-21T07:33:45;9.15;;;5.60;;
41881;SDS011;27562;47.524;12.404;2023-11-21T07:36:12;8.85;;;5.70;;
41881;SDS011;27562;47.524;12.404;2023-11-21T07:38:43;9.55;;;6.00;;
41881;SDS011;27562;47.524;12.404;2023-11-21T07:41:10;7.75;;;4.97;;
41881;SDS011;27562;47.524;12.404;2023-11-21T07:43:35;9.07;;;5.47;;
41881;SDS011;27562;47.524;12.404;2023-11-21T07:46:02;9.20;;;4.50;;
41881;SDS011;27562;47.524;12.404;2023-11-21T07:48:31;8.18;;;4.57;;
41881;SDS011;27562;47.524;12.404;2023-11-21T07:50:58;6.75;;;4.50;;
41881;SDS011;27562;47.524;12.404;2023-11-21T07:53:24;8.82;;;5.40;;
41881;SDS011;27562;47.524;12.404;2023-11-21T07:55:50;7.28;;;4.70;;
41881;SDS011;27562;47.524;12.404;2023-11-21T07:58:17;7.05;;;5.03;;
41881;SDS011;27562;47.524;12.404;2023-11-21T08:00:43;7.72;;;4.75;;
41881;SDS011;27562;47.524;12.404;2023-11-21T08:03:09;9.77;;;4.78;;
41881;SDS011;27562;47.524;12.404;2023-11-21T08:05:36;9.95;;;5.78;;
41881;SDS011;27562;47.524;12.404;2023-11-21T08:08:02;7.85;;;5.07;;
41881;SDS011;27562;47.524;12.404;2023-11-21T08:10:27;10.90;;;6.13;;
41881;SDS011;27562;47.524;12.404;2023-11-21T08:12:53;9.73;;;5.47;;
41881;SDS011;27562;47.524;12.404;2023-11-21T08:15:19;9.40;;;5.13;;
41881;SDS011;27562;47.524;12.404;2023-11-21T08:17:45;9.93;;;5.72;;
41881;SDS011;27562;47.524;12.404;2023-11-21T08:20:11;10.82;;;6.60;;
41881;SDS011;27562;47.524;12.404;2023-11-21T08:22:37;10.90;;;6.53;;
41881;SDS011;27562;47.524;12.404;2023-11-21T08:25:06;12.98;;;7.97;;
41881;SDS011;27562;47.524;12.404;2023-11-21T08:27:33;25.75;;;12.77;;
41881;SDS011;27562;47.524;12.404;2023-11-21T08:29:59;28.67;;;11.88;;
41881;SDS011;27562;47.524;12.404;2023-11-21T08:32:25;39.72;;;16.95;;
41881;SDS011;27562;47.524;12.404;2023-11-21T08:34:51;36.63;;;14.77;;
41881;SDS011;27562;47.524;12.404;2023-11-21T08:37:17;26.45;;;12.63;;
41881;SDS011;27562;47.524;12.404;2023-11-21T08:39:46;16.77;;;8.98;;
41881;SDS011;27562;47.524;12.404;2023-11-21T08:42:13;13.30;;;7.78;;
41881;SDS011;27562;47.524;12.404;2023-11-21T08:44:39;10.43;;;6.72;;
41881;SDS011;27562;47.524;12.404;2023-11-21T08:47:05;10.77;;;6.68;;
41881;SDS011;27562;47.524;12.404;2023-11-21T08:49:31;12.43;;;6.90;;
41881;SDS011;27562;47.524;12.404;2023-11-21T08:51:57;12.30;;;7.95;;
41881;SDS011;27562;47.524;12.404;2023-11-21T08:54:24;11.38;;;7.78;;
41881;SDS011;27562;47.524;12.404;2023-11-21T08:56:51;11.45;;;7.28;;
41881;SDS011;27562;47.524;12.404;2023-11-21T08:59:20;10.80;;;6.78;;
41881;SDS011;27562;47.524;12.404;2023-11-21T09:01:46;10.82;;;6.60;;
41881;SDS011;27562;47.524;12.404;2023-11-21T09:04:12;9.63;;;6.35;;
41881;SDS011;27562;47.524;12.404;2023-11-21T09:06:38;8.82;;;5.43;;
41881;SDS011;27562;47.524;12.404;2023-11-21T09:09:05;9.50;;;5.75;;
41881;SDS011;27562;47.524;12.404;2023-11-21T09:11:31;12.32;;;6.50;;
41881;SDS011;27562;47.524;12.404;2023-11-21T09:13:59;8.77;;;6.10;;
41881;SDS011;27562;47.524;12.404;2023-11-21T09:16:25;8.82;;;6.15;;
41881;SDS011;27562;47.524;12.404;2023-11-21T09:18:51;9.90;;;6.07;;
41881;SDS011;27562;47.524;12.404;2023-11-21T09:21:17;9.45;;;6.00;;
41881;SDS011;27562;47.524;12.404;2023-11-21T09:23:44;8.45;;;5.80;;
41881;SDS011;27562;47.524;12.404;2023-11-21T09:26:10;7.50;;;5.28;;
41881;SDS011;27562;47.524;12.404;2023-11-21T09:28:35;8.50;;;5.32;;
41881;SDS011;27562;47.524;12.404;2023-11-21T09:31:04;10.75;;;5.80;;
41881;SDS011;27562;47.524;12.404;2023-11-21T09:33:30;29.88;;;17.92;;
41881;SDS011;27562;47.524;12.404;2023-11-21T09:35:56;27.20;;;13.88;;
41881;SDS011;27562;47.524;12.404;2023-11-21T09:38:22;26.33;;;12.43;;
41881;SDS011;27562;47.524;12.404;2023-11-21T09:40:48;13.60;;;8.10;;
41881;SDS011;27562;47.524;12.404;2023-11-21T09:43:17;12.75;;;7.05;;
41881;SDS011;27562;47.524;12.404;2023-11-21T09:45:47;11.63;;;6.88;;
41881;SDS011;27562;47.524;12.404;2023-11-21T09:48:19;10.63;;;6.28;;
41881;SDS011;27562;47.524;12.404;2023-11-21T09:50:46;9.02;;;5.95;;
41881;SDS011;27562;47.524;12.404;2023-11-21T09:55:50;9.45;;;6.20;;
41881;SDS011;27562;47.524;12.404;2023-11-21T09:58:17;8.20;;;5.43;;
41881;SDS011;27562;47.524;12.404;2023-11-21T10:00:45;8.70;;;6.38;;
41881;SDS011;27562;47.524;12.404;2023-11-21T10:03:12;9.20;;;5.28;;
41881;SDS011;27562;47.524;12.404;2023-11-21T10:05:39;11.52;;;6.68;;
41881;SDS011;27562;47.524;12.404;2023-11-21T10:08:10;10.65;;;6.78;;
41881;SDS011;27562;47.524;12.404;2023-11-21T10:10:37;10.30;;;6.90;;
41881;SDS011;27562;47.524;12.404;2023-11-21T10:13:07;8.85;;;6.40;;
41881;SDS011;27562;47.524;12.404;2023-11-21T10:15:37;13.00;;;7.10;;
41881;SDS011;27562;47.524;12.404;2023-11-21T10:18:03;9.75;;;6.60;;
41881;SDS011;27562;47.524;12.404;2023-11-21T10:20:31;11.73;;;8.20;;
41881;SDS011;27562;47.524;12.404;2023-11-21T10:23:03;10.55;;;7.22;;
41881;SDS011;27562;47.524;12.404;2023-11-21T10:25:29;11.57;;;7.13;;
41881;SDS011;27562;47.524;12.404;2023-11-21T10:27:59;10.60;;;6.05;;
41881;SDS011;27562;47.524;12.404;2023-11-21T10:33:04;11.05;;;6.85;;
41881;SDS011;27562;47.524;12.404;2023-11-21T10:38:12;9.05;;;5.75;;
41881;SDS011;27562;47.524;12.404;2023-11-21T10:40:39;8.75;;;5.82;;
41881;SDS011;27562;47.524;12.404;2023-11-21T10:43:07;11.25;;;7.18;;
41881;SDS011;27562;47.524;12.404;2023-11-21T10:45:37;12.73;;;7.18;;
41881;SDS011;27562;47.524;12.404;2023-11-21T10:48:15;12.90;;;8.07;;
41881;SDS011;27562;47.524;12.404;2023-11-21T10:50:41;10.15;;;6.95;;
41881;SDS011;27562;47.524;12.404;2023-11-21T10:53:07;10.05;;;6.60;;
41881;SDS011;27562;47.524;12.404;2023-11-21T10:55:34;10.82;;;6.53;;
41881;SDS011;27562;47.524;12.404;2023-11-21T10:58:01;18.95;;;10.82;;
41881;SDS011;27562;47.524;12.404;2023-11-21T11:00:29;15.35;;;9.20;;
41881;SDS011;27562;47.524;12.404;2023-11-21T11:02:56;11.70;;;7.43;;
41881;SDS011;27562;47.524;12.404;2023-11-21T11:05:24;9.73;;;6.00;;
41881;SDS011;27562;47.524;12.404;2023-11-21T11:08:08;8.30;;;6.00;;
41881;SDS011;27562;47.524;12.404;2023-11-21T11:10:37;12.52;;;8.43;;
41881;SDS011;27562;47.524;12.404;2023-11-21T11:13:03;8.48;;;6.38;;
41881;SDS011;27562;47.524;12.404;2023-11-21T11:15:31;9.45;;;6.50;;
41881;SDS011;27562;47.524;12.404;2023-11-21T11:17:58;10.02;;;6.07;;
41881;SDS011;27562;47.524;12.404;2023-11-21T11:20:29;10.40;;;6.43;;
41881;SDS011;27562;47.524;12.404;2023-11-21T11:28:19;8.65;;;4.63;;
41881;SDS011;27562;47.524;12.404;2023-11-21T11:36:06;8.55;;;4.28;;
41881;SDS011;27562;47.524;12.404;2023-11-21T11:38:38;8.05;;;4.78;;
41881;SDS011;27562;47.524;12.404;2023-11-21T11:41:10;10.07;;;6.00;;
41881;SDS011;27562;47.524;12.404;2023-11-21T11:43:35;8.52;;;5.93;;
41881;SDS011;27562;47.524;12.404;2023-11-21T11:46:10;7.93;;;5.80;;
41881;SDS011;27562;47.524;12.404;2023-11-21T11:48:40;6.90;;;5.00;;
41881;SDS011;27562;47.524;12.404;2023-11-21T11:51:12;6.70;;;5.00;;
41881;SDS011;27562;47.524;12.404;2023-11-21T11:53:49;6.55;;;4.60;;
41881;SDS011;27562;47.524;12.404;2023-11-21T11:58:48;6.20;;;3.92;;
41881;SDS011;27562;47.524;12.404;2023-11-21T12:01:19;6.85;;;3.95;;
41881;SDS011;27562;47.524;12.404;2023-11-21T12:03:55;8.77;;;4.25;;
41881;SDS011;27562;47.524;12.404;2023-11-21T12:06:42;9.27;;;4.63;;
41881;SDS011;27562;47.524;12.404;2023-11-21T12:09:18;7.93;;;4.55;;
41881;SDS011;27562;47.524;12.404;2023-11-21T12:11:45;6.28;;;4.03;;
41881;SDS011;27562;47.524;12.404;2023-11-21T12:14:12;7.93;;;4.85;;
41881;SDS011;27562;47.524;12.404;2023-11-21T12:16:39;11.38;;;5.25;;
41881;SDS011;27562;47.524;12.404;2023-11-21T12:19:05;9.18;;;5.15;;
41881;SDS011;27562;47.524;12.404;2023-11-21T12:21:31;9.23;;;4.95;;
41881;SDS011;27562;47.524;12.404;2023-11-21T12:23:57;8.40;;;5.03;;
41881;SDS011;27562;47.524;12.404;2023-11-21T12:26:23;6.57;;;3.38;;
41881;SDS011;27562;47.524;12.404;2023-11-21T12:28:52;2.58;;;1.10;;
41881;SDS011;27562;47.524;12.404;2023-11-21T12:31:24;2.05;;;1.02;;
41881;SDS011;27562;47.524;12.404;2023-11-21T12:33:50;0.70;;;0.50;;
41881;SDS011;27562;47.524;12.404;2023-11-21T12:36:16;1.48;;;0.60;;
41881;SDS011;27562;47.524;12.404;2023-11-21T12:38:42;2.05;;;0.60;;
41881;SDS011;27562;47.524;12.404;2023-11-21T12:41:10;0.85;;;0.50;;
41881;SDS011;27562;47.524;12.404;2023-11-21T12:43:36;1.27;;;0.63;;
41881;SDS011;27562;47.524;12.404;2023-11-21T12:46:07;1.42;;;0.82;;
41881;SDS011;27562;47.524;12.404;2023-11-21T12:48:38;2.17;;;0.80;;
41881;SDS011;27562;47.524;12.404;2023-11-21T12:51:11;1.10;;;0.70;;
41881;SDS011;27562;47.524;12.404;2023-11-21T12:53:37;2.53;;;0.60;;
41881;SDS011;27562;47.524;12.404;2023-11-21T12:56:21;0.80;;;0.40;;
41881;SDS011;27562;47.524;12.404;2023-11-21T12:58:50;0.63;;;0.40;;
41881;SDS011;27562;47.524;12.404;2023-11-21T13:01:19;0.88;;;0.52;;
41881;SDS011;27562;47.524;12.404;2023-11-21T13:03:48;1.60;;;0.30;;
41881;SDS011;27562;47.524;12.404;2023-11-21T13:06:16;0.73;;;0.32;;
41881;SDS011;27562;47.524;12.404;2023-11-21T13:08:43;0.77;;;0.40;;
41881;SDS011;27562;47.524;12.404;2023-11-21T13:11:12;1.15;;;0.38;;
41881;SDS011;27562;47.524;12.404;2023-11-21T13:13:40;1.05;;;0.45;;
41881;SDS011;27562;47.524;12.404;2023-11-21T13:16:08;1.45;;;0.40;;
41881;SDS011;27562;47.524;12.404;2023-11-21T13:18:35;1.15;;;0.70;;
41881;SDS011;27562;47.524;12.404;2023-11-21T13:21:02;1.23;;;0.45;;
41881;SDS011;27562;47.524;12.404;2023-11-21T13:23:38;1.95;;;0.60;;
41881;SDS011;27562;47.524;12.404;2023-11-21T13:26:06;1.38;;;0.70;;
41881;SDS011;27562;47.524;12.404;2023-11-21T13:28:33;1.55;;;0.82;;
41881;SDS011;27562;47.524;12.404;2023-11-21T13:31:01;1.83;;;1.10;;
41881;SDS011;27562;47.524;12.404;2023-11-21T13:33:37;2.53;;;1.60;;
41881;SDS011;27562;47.524;12.404;2023-11-21T13:36:04;4.20;;;2.38;;
41881;SDS011;27562;47.524;12.404;2023-11-21T13:38:33;4.63;;;2.33;;
41881;SDS011;27562;47.524;12.404;2023-11-21T13:41:00;5.07;;;3.00;;
41881;SDS011;27562;47.524;12.404;2023-11-21T13:43:26;4.15;;;2.42;;
41881;SDS011;27562;47.524;12.404;2023-11-21T13:45:54;3.58;;;2.38;;
41881;SDS011;27562;47.524;12.404;2023-11-21T13:48:29;4.15;;;2.30;;
41881;SDS011;27562;47.524;12.404;2023-11-21T13:51:05;3.75;;;2.20;;
41881;SDS011;27562;47.524;12.404;2023-11-21T13:53:47;3.30;;;2.03;;
41881;SDS011;27562;47.524;12.404;2023-11-21T13:56:15;3.65;;;2.20;;
41881;SDS011;27562;47.524;12.404;2023-11-21T13:58:49;4.22;;;2.10;;
41881;SDS011;27562;47.524;12.404;2023-11-21T14:01:19;4.32;;;2.08;;
41881;SDS011;27562;47.524;12.404;2023-11-21T14:03:57;3.58;;;1.90;;
41881;SDS011;27562;47.524;12.404;2023-11-21T14:06:38;3.58;;;1.90;;
41881;SDS011;27562;47.524;12.404;2023-11-21T14:09:20;4.75;;;2.30;;
41881;SDS011;27562;47.524;12.404;2023-11-21T14:14:18;2.92;;;1.80;;
41881;SDS011;27562;47.524;12.404;2023-11-21T14:16:44;3.80;;;1.90;;
41881;SDS011;27562;47.524;12.404;2023-11-21T14:19:10;3.03;;;1.95;;
41881;SDS011;27562;47.524;12.404;2023-11-21T14:21:45;2.60;;;1.40;;
41881;SDS011;27562;47.524;12.404;2023-11-21T14:24:13;2.15;;;1.10;;
41881;SDS011;27562;47.524;12.404;2023-11-21T14:26:42;2.33;;;1.40;;
41881;SDS011;27562;47.524;12.404;2023-11-21T14:29:10;2.70;;;1.65;;
41881;SDS011;27562;47.524;12.404;2023-11-21T14:31:39;3.30;;;1.90;;
41881;SDS011;27562;47.524;12.404;2023-11-21T14:34:06;3.55;;;1.95;;
41881;SDS011;27562;47.524;12.404;2023-11-21T14:36:35;3.53;;;2.13;;
41881;SDS011;27562;47.524;12.404;2023-11-21T14:39:04;4.63;;;1.95;;
41881;SDS011;27562;47.524;12.404;2023-11-21T14:41:34;4.25;;;2.40;;
41881;SDS011;27562;47.524;12.404;2023-11-21T14:44:02;4.10;;;2.55;;
41881;SDS011;27562;47.524;12.404;2023-11-21T14:46:29;6.15;;;3.55;;
41881;SDS011;27562;47.524;12.404;2023-11-21T14:48:54;5.13;;;2.80;;
41881;SDS011;27562;47.524;12.404;2023-11-21T14:51:40;4.30;;;2.50;;
41881;SDS011;27562;47.524;12.404;2023-11-21T14:54:24;4.10;;;2.42;;
41881;SDS011;27562;47.524;12.404;2023-11-21T14:57:05;5.82;;;3.70;;